Time;durP1;ratioP1;P1;durP2;ratioP2;P2;SDS_P1;SDS_P2;PMS_P1;PMS_P2;Temp;Humidity;BMP_temperature;BMP_pressure;BME280_temperature;BME280_humidity;BME280_pressure;Samples;Min_cycle;Max_cycle;Signal;HPM_P1;HPM_P2
2023/08/31 00:04:08;;;;;;;0.43;0.40;;;;;;;12.29;100.00;97782.91;15265912;19;20386;-61
2023/08/31 00:09:36;;;;;;;1.30;0.68;;;;;;;12.26;100.00;97802.22;15271864;19;20023;-60
2023/08/31 00:15:01;;;;;;;2.53;0.70;;;;;;;12.21;100.00;97803.81;15272105;19;20021;-59
2023/08/31 00:20:26;;;;;;;0.73;0.50;;;;;;;12.15;100.00;97805.38;15274994;19;20017;-60
2023/08/31 00:25:53;;;;;;;1.23;0.60;;;;;;;12.11;100.00;97799.50;15271099;19;20025;-59
2023/08/31 00:31:18;;;;;;;0.73;0.68;;;;;;;12.06;100.00;97795.69;15273549;19;20014;-61
2023/08/31 00:36:43;;;;;;;0.75;0.65;;;;;;;12.00;100.00;97795.44;15261623;19;20014;-57
2023/08/31 00:42:11;;;;;;;0.93;0.70;;;;;;;11.98;100.00;97792.06;15269511;19;20329;-60
2023/08/31 00:47:36;;;;;;;0.65;0.65;;;;;;;11.94;100.00;97785.31;15273404;19;20011;-61
2023/08/31 00:53:01;;;;;;;0.60;0.60;;;;;;;11.93;100.00;97785.53;15271492;19;20019;-60
2023/08/31 00:58:30;;;;;;;0.80;0.57;;;;;;;11.90;100.00;97784.03;15270555;19;20058;-55
2023/08/31 01:04:04;;;;;;;0.75;0.65;;;;;;;11.90;100.00;97781.34;15269287;19;20023;-58
2023/08/31 01:09:39;;;;;;;0.80;0.70;;;;;;;11.86;100.00;97786.28;15260405;19;20028;-60
2023/08/31 01:15:13;;;;;;;1.67;0.98;;;;;;;11.86;100.00;97821.38;15262419;19;20014;-56
2023/08/31 01:20:56;;;;;;;1.00;0.88;;;;;;;11.84;100.00;97847.69;15268806;19;20372;-63
2023/08/31 01:26:24;;;;;;;1.15;1.05;;;;;;;11.84;100.00;97861.19;15275607;19;20010;-59
2023/08/31 01:31:53;;;;;;;1.20;1.10;;;;;;;11.86;100.00;97878.03;15270685;19;20013;-60
2023/08/31 01:37:32;;;;;;;1.10;1.00;;;;;;;11.90;100.00;97891.16;15268583;19;20029;-60
2023/08/31 01:43:00;;;;;;;1.10;1.02;;;;;;;11.93;100.00;97910.53;15267944;19;20028;-60
2023/08/31 01:48:25;;;;;;;1.13;1.10;;;;;;;11.98;100.00;97907.31;15264846;19;20038;-58
2023/08/31 01:53:49;;;;;;;1.35;1.00;;;;;;;12.01;100.00;97913.19;15265196;19;20023;-60
2023/08/31 01:59:23;;;;;;;0.85;0.70;;;;;;;12.05;100.00;97910.97;15265247;19;20018;-59
2023/08/31 02:04:50;;;;;;;1.27;0.80;;;;;;;12.06;100.00;97892.88;15262090;19;20050;-61
2023/08/31 02:10:15;;;;;;;1.52;0.80;;;;;;;12.12;100.00;97882.19;15254324;19;20015;-61
2023/08/31 02:15:43;;;;;;;0.80;0.80;;;;;;;12.12;100.00;97865.97;15263289;19;20018;-60
2023/08/31 02:21:07;;;;;;;2.00;0.80;;;;;;;12.11;100.00;97858.06;15266788;19;20026;-59
2023/08/31 02:26:32;;;;;;;1.25;0.80;;;;;;;12.13;100.00;97853.34;15275949;19;21042;-61
2023/08/31 02:31:59;;;;;;;2.08;0.80;;;;;;;12.14;100.00;97849.63;15279990;19;20026;-61
2023/08/31 02:37:25;;;;;;;3.58;0.90;;;;;;;12.13;100.00;97845.25;15280981;19;20028;-60
2023/08/31 02:42:50;;;;;;;1.25;0.80;;;;;;;12.14;100.00;97845.03;15272753;19;20025;-60
2023/08/31 02:48:18;;;;;;;1.73;0.98;;;;;;;12.17;100.00;97841.97;15278528;19;20094;-59
2023/08/31 02:53:42;;;;;;;1.83;1.00;;;;;;;12.17;100.00;97836.56;15272069;19;20018;-57
2023/08/31 02:59:13;;;;;;;1.67;0.90;;;;;;;12.18;100.00;97840.09;15278061;19;20014;-60
2023/08/31 03:04:42;;;;;;;1.20;0.90;;;;;;;12.15;100.00;97843.19;15273734;19;20030;-57
2023/08/31 03:10:07;;;;;;;1.38;1.00;;;;;;;12.11;100.00;97831.91;15274166;19;20414;-59
2023/08/31 03:15:32;;;;;;;2.55;1.20;;;;;;;12.08;100.00;97842.25;15267672;19;20010;-60
2023/08/31 03:20:59;;;;;;;2.08;1.10;;;;;;;12.05;100.00;97856.13;15279323;19;20011;-59
2023/08/31 03:26:24;;;;;;;2.28;1.33;;;;;;;12.03;100.00;97869.78;15268311;19;20018;-58
2023/08/31 03:31:48;;;;;;;1.77;1.40;;;;;;;12.01;100.00;97880.78;15274333;19;20566;-56
2023/08/31 03:37:16;;;;;;;1.70;1.40;;;;;;;12.02;100.00;97884.31;15276666;19;20031;-56
2023/08/31 03:42:40;;;;;;;1.50;1.30;;;;;;;11.98;100.00;97897.34;15273522;19;20026;-58
2023/08/31 03:48:06;;;;;;;2.40;1.33;;;;;;;12.00;100.00;97900.72;15265600;19;20030;-60
2023/08/31 03:53:33;;;;;;;2.00;1.35;;;;;;;11.98;100.00;97913.53;15272377;19;21502;-60
2023/08/31 03:59:05;;;;;;;2.17;1.30;;;;;;;11.93;100.00;97915.09;15268774;19;20022;-55
2023/08/31 04:04:30;;;;;;;2.35;1.30;;;;;;;11.87;100.00;97903.16;15270982;19;20385;-58
2023/08/31 04:10:00;;;;;;;3.40;1.30;;;;;;;11.82;100.00;97905.56;15269183;19;20018;-58
2023/08/31 04:15:26;;;;;;;2.90;1.50;;;;;;;11.76;100.00;97900.91;15269057;19;20023;-59
2023/08/31 04:20:59;;;;;;;3.22;1.20;;;;;;;11.69;100.00;97898.94;15267040;19;20028;-55
2023/08/31 04:26:27;;;;;;;2.03;1.15;;;;;;;11.61;100.00;97890.06;15271894;19;20029;-61
2023/08/31 04:31:51;;;;;;;3.25;1.35;;;;;;;11.55;100.00;97886.22;15266930;19;20081;-56
2023/08/31 04:37:16;;;;;;;1.67;1.27;;;;;;;11.46;100.00;97890.00;15271639;19;20014;-58
2023/08/31 04:42:43;;;;;;;2.42;1.30;;;;;;;11.41;100.00;97904.88;15269101;19;20020;-56
2023/08/31 04:48:08;;;;;;;2.13;1.23;;;;;;;11.36;100.00;97907.25;15272378;19;20413;-59
2023/08/31 04:53:32;;;;;;;1.55;1.27;;;;;;;11.30;100.00;97910.69;15264418;19;20455;-51
2023/08/31 04:59:06;;;;;;;1.48;1.33;;;;;;;11.25;100.00;97921.16;15271804;19;20500;-59
2023/08/31 05:04:31;;;;;;;2.35;1.40;;;;;;;11.21;100.00;97938.72;15270453;19;20026;-57
2023/08/31 05:09:55;;;;;;;2.40;1.60;;;;;;;11.20;100.00;97943.25;15273372;19;20021;-57
2023/08/31 05:15:23;;;;;;;5.07;1.58;;;;;;;11.24;100.00;97957.22;15270392;19;20081;-57
2023/08/31 05:20:48;;;;;;;2.13;1.60;;;;;;;11.28;100.00;97969.34;15271178;19;20010;-57
2023/08/31 05:26:15;;;;;;;2.90;1.70;;;;;;;11.33;100.00;97977.75;15262666;19;20487;-58
2023/08/31 05:31:42;;;;;;;3.72;1.67;;;;;;;11.40;100.00;97997.59;15266580;19;20363;-55
2023/08/31 05:37:08;;;;;;;1.70;1.50;;;;;;;11.47;100.00;98024.69;15263040;19;20021;-58
2023/08/31 05:42:33;;;;;;;2.83;1.70;;;;;;;11.50;100.00;98034.28;15268680;19;20472;-57
2023/08/31 05:48:01;;;;;;;2.50;1.85;;;;;;;11.53;100.00;98044.72;15270754;19;20976;-58
2023/08/31 05:53:26;;;;;;;2.97;1.60;;;;;;;11.55;100.00;98042.69;15265803;19;20557;-56
2023/08/31 05:58:54;;;;;;;1.92;1.67;;;;;;;11.57;100.00;98052.28;15272725;19;20018;-58
2023/08/31 06:04:21;;;;;;;3.17;1.70;;;;;;;11.63;100.00;98056.13;15282665;19;20368;-58
2023/08/31 06:09:46;;;;;;;3.50;1.30;;;;;;;11.69;100.00;98046.50;15282021;19;20006;-58
2023/08/31 06:15:11;;;;;;;2.88;1.70;;;;;;;11.70;100.00;98040.91;15277687;19;20026;-58
2023/08/31 06:20:39;;;;;;;2.13;1.60;;;;;;;11.75;100.00;98042.25;15284129;19;20367;-57
2023/08/31 06:26:03;;;;;;;3.03;1.70;;;;;;;11.79;100.00;98039.00;15277501;19;20101;-56
2023/08/31 06:31:29;;;;;;;2.22;1.67;;;;;;;11.85;100.00;98032.91;15271196;19;20018;-58
2023/08/31 06:36:58;;;;;;;1.90;1.70;;;;;;;11.95;100.00;98038.06;15276754;19;20039;-56
2023/08/31 06:42:23;;;;;;;3.08;1.70;;;;;;;12.04;100.00;98027.25;15282340;19;20358;-56
2023/08/31 06:47:49;;;;;;;2.60;1.90;;;;;;;12.14;100.00;98019.72;15280390;19;20372;-58
2023/08/31 06:53:17;;;;;;;2.60;1.40;;;;;;;12.33;100.00;97976.00;15279769;19;20019;-57
2023/08/31 06:58:49;;;;;;;5.05;1.63;;;;;;;12.58;100.00;97897.41;15279659;19;20487;-58
2023/08/31 07:04:14;;;;;;;2.65;1.30;;;;;;;12.83;100.00;97878.16;15271418;19;20078;-56
2023/08/31 07:09:41;;;;;;;2.60;1.38;;;;;;;13.06;100.00;97858.25;15270106;19;20362;-56
2023/08/31 07:15:07;;;;;;;3.25;1.50;;;;;;;13.24;100.00;97861.34;15276441;19;20019;-54
2023/08/31 07:20:31;;;;;;;2.10;1.13;;;;;;;13.26;100.00;97864.72;15280148;19;20011;-56
2023/08/31 07:26:04;;;;;;;1.63;1.23;;;;;;;13.14;100.00;97855.41;15271794;19;20054;-58
2023/08/31 07:31:28;;;;;;;2.30;1.42;;;;;;;13.20;100.00;97870.03;15273194;19;20354;-57
2023/08/31 07:36:54;;;;;;;2.47;1.40;;;;;;;13.31;100.00;97868.72;15268488;19;20033;-57
2023/08/31 07:42:21;;;;;;;2.83;1.40;;;;;;;13.47;100.00;97859.53;15273179;19;20025;-56
2023/08/31 07:47:52;;;;;;;2.70;1.10;;;;;;;13.67;100.00;97857.00;15276814;19;20070;-53
2023/08/31 07:53:17;;;;;;;2.78;1.13;;;;;;;13.91;100.00;97857.63;15276670;19;20379;-53
2023/08/31 07:58:45;;;;;;;1.05;0.80;;;;;;;14.06;100.00;97852.09;15276199;19;20018;-55
2023/08/31 08:04:11;;;;;;;3.63;1.02;;;;;;;14.15;100.00;97854.47;15273719;19;20018;-56
2023/08/31 08:09:35;;;;;;;3.25;0.98;;;;;;;14.28;100.00;97858.28;15276460;19;20021;-56
2023/08/31 08:15:03;;;;;;;2.28;0.93;;;;;;;14.32;100.00;97848.69;15269073;19;20486;-53
2023/08/31 08:20:27;;;;;;;2.35;0.82;;;;;;;14.49;100.00;97849.22;15276210;19;20394;-56
2023/08/31 08:25:52;;;;;;;2.97;1.00;;;;;;;14.60;100.00;97845.09;15269962;19;20014;-55
2023/08/31 08:31:19;;;;;;;2.42;0.95;;;;;;;14.73;100.00;97853.34;15270990;19;20014;-54
2023/08/31 08:36:44;;;;;;;1.85;1.00;;;;;;;14.71;100.00;97852.69;15265417;19;20086;-57
2023/08/31 08:42:11;;;;;;;2.42;1.05;;;;;;;14.61;100.00;97857.63;15274633;19;20029;-55
2023/08/31 08:47:39;;;;;;;1.83;1.00;;;;;;;14.62;100.00;97875.56;15270152;19;20028;-56
2023/08/31 08:53:04;;;;;;;2.25;1.00;;;;;;;14.86;100.00;97868.00;15269662;19;20486;-53
2023/08/31 08:58:29;;;;;;;1.35;0.75;;;;;;;15.07;100.00;97862.44;15273378;19;20023;-56
2023/08/31 09:03:57;;;;;;;3.00;0.90;;;;;;;15.02;100.00;97845.91;15270573;19;20022;-56
2023/08/31 09:09:22;;;;;;;2.20;0.88;;;;;;;14.98;100.00;97850.09;15264618;19;20019;-57
2023/08/31 09:14:47;;;;;;;1.95;0.70;;;;;;;15.01;100.00;97846.94;15267444;19;20028;-55
2023/08/31 09:20:14;;;;;;;2.10;0.80;;;;;;;15.15;100.00;97842.41;15267398;19;20022;-58
2023/08/31 09:25:38;;;;;;;2.00;0.90;;;;;;;15.45;100.00;97843.94;15266570;19;20476;-57
2023/08/31 09:31:08;;;;;;;2.25;0.75;;;;;;;15.68;100.00;97840.78;15269074;19;20014;-58
2023/08/31 09:36:36;;;;;;;1.95;0.80;;;;;;;15.92;100.00;97850.25;15267588;19;20018;-56
2023/08/31 09:42:03;;;;;;;1.45;0.60;;;;;;;16.03;100.00;97840.59;15263425;19;20025;-58
2023/08/31 09:47:28;;;;;;;1.08;0.60;;;;;;;16.23;100.00;97842.47;15270606;19;20018;-53
2023/08/31 09:53:00;;;;;;;1.65;0.60;;;;;;;16.21;100.00;97850.81;15260503;19;20756;-55
2023/08/31 09:58:28;;;;;;;1.25;0.60;;;;;;;16.17;100.00;97839.53;15267422;19;20007;-57
2023/08/31 10:03:54;;;;;;;1.65;0.60;;;;;;;16.03;100.00;97851.47;15267422;19;20492;-57
2023/08/31 10:09:23;;;;;;;1.10;0.60;;;;;;;15.84;100.00;97839.53;15266780;19;20018;-57
2023/08/31 10:14:49;;;;;;;1.02;0.50;;;;;;;16.04;100.00;97836.84;15258738;19;20018;-55
2023/08/31 10:20:16;;;;;;;0.77;0.47;;;;;;;16.31;100.00;97847.66;15270020;19;20010;-58
2023/08/31 10:26:06;;;;;;;1.55;0.50;;;;;;;16.43;100.00;97845.97;15259094;19;20017;-58
2023/08/31 10:31:31;;;;;;;0.52;0.50;;;;;;;16.24;100.00;97839.53;15264612;19;20362;-57
2023/08/31 10:36:58;;;;;;;1.95;0.40;;;;;;;16.18;100.00;97843.09;15264256;19;20018;-57
2023/08/31 10:42:34;;;;;;;1.30;0.50;;;;;;;16.18;100.00;97845.78;15271685;19;20476;-55
2023/08/31 10:48:03;;;;;;;0.98;0.50;;;;;;;16.09;100.00;97855.22;15277932;19;20746;-57
2023/08/31 10:53:37;;;;;;;1.38;0.60;;;;;;;15.97;100.00;97846.88;15276256;19;20399;-56
2023/08/31 10:59:05;;;;;;;1.83;0.60;;;;;;;16.02;100.00;97857.94;15276585;19;20379;-55
2023/08/31 11:04:32;;;;;;;0.85;0.55;;;;;;;16.29;100.00;97849.75;15276710;19;20019;-55
2023/08/31 11:10:09;;;;;;;0.65;0.47;;;;;;;16.47;100.00;97839.03;15279695;19;20017;-53
2023/08/31 11:15:37;;;;;;;1.52;0.60;;;;;;;16.50;100.00;97843.25;15275565;19;20027;-54
2023/08/31 11:21:02;;;;;;;2.05;0.50;;;;;;;16.90;100.00;97843.06;15275922;19;20029;-55
2023/08/31 11:26:27;;;;;;;2.85;0.57;;;;;;;17.05;100.00;97828.38;15276077;19;20010;-49
2023/08/31 11:31:54;;;;;;;0.82;0.43;;;;;;;17.03;100.00;97844.09;15270326;19;20017;-55
2023/08/31 11:37:22;;;;;;;1.08;0.50;;;;;;;16.89;100.00;97835.94;15277800;19;20017;-53
2023/08/31 11:42:48;;;;;;;2.67;0.80;;;;;;;16.91;100.00;97844.75;15276436;19;20027;-54
2023/08/31 11:48:17;;;;;;;1.40;0.47;;;;;;;17.06;100.00;97840.94;15276990;19;20895;-53
2023/08/31 11:53:41;;;;;;;0.60;0.30;;;;;;;17.19;100.00;97835.41;15264238;19;20023;-55
2023/08/31 11:59:17;;;;;;;0.77;0.50;;;;;;;17.21;100.00;97840.63;15275191;19;20018;-51
2023/08/31 12:04:48;;;;;;;0.55;0.40;;;;;;;17.37;100.00;97825.66;15272731;19;20671;-47
2023/08/31 12:10:14;;;;;;;1.25;0.52;;;;;;;17.59;100.00;97828.00;15274472;19;20029;-49
2023/08/31 12:15:38;;;;;;;1.75;0.60;;;;;;;17.72;100.00;97827.91;15271683;19;20031;-50
2023/08/31 12:21:06;;;;;;;1.67;0.50;;;;;;;17.72;100.00;97830.63;15276498;19;20113;-50
2023/08/31 12:26:32;;;;;;;1.30;0.50;;;;;;;17.71;100.00;97837.13;15265921;19;20343;-47
2023/08/31 12:31:56;;;;;;;0.50;0.50;;;;;;;17.85;100.00;97827.81;15268542;19;20038;-52
2023/08/31 12:37:23;;;;;;;2.75;0.47;;;;;;;17.94;100.00;97827.50;15272205;19;20090;-48
2023/08/31 12:42:48;;;;;;;0.85;0.45;;;;;;;18.01;100.00;97833.78;15273005;19;20077;-49
2023/08/31 12:48:13;;;;;;;0.77;0.50;;;;;;;17.84;100.00;97845.22;15274107;19;20014;-47
2023/08/31 12:53:41;;;;;;;1.60;0.50;;;;;;;18.16;100.00;97838.88;15267716;19;20035;-48
2023/08/31 12:59:07;;;;;;;0.88;0.57;;;;;;;18.21;100.00;97839.06;15266631;19;20085;-48
2023/08/31 13:04:32;;;;;;;2.25;0.60;;;;;;;18.52;100.00;97836.44;15261068;19;20500;-52
2023/08/31 13:10:03;;;;;;;1.17;0.60;;;;;;;18.09;100.00;97838.94;15272935;19;20031;-49
2023/08/31 13:15:28;;;;;;;0.98;0.50;;;;;;;17.75;100.00;97841.09;15268176;19;20085;-52
2023/08/31 13:20:54;;;;;;;1.17;0.47;;;;;;;17.60;100.00;97846.88;15269733;19;20124;-57
2023/08/31 13:26:21;;;;;;;0.80;0.52;;;;;;;17.55;100.00;97849.41;15268320;19;20019;-57
2023/08/31 13:31:46;;;;;;;1.05;0.60;;;;;;;17.37;100.00;97858.34;15269238;19;20360;-56
2023/08/31 13:37:12;;;;;;;0.70;0.50;;;;;;;17.61;100.00;97855.88;15261434;19;20693;-51
2023/08/31 13:42:40;;;;;;;0.85;0.40;;;;;;;17.94;100.00;97857.50;15268883;19;20018;-55
2023/08/31 13:48:06;;;;;;;1.15;0.60;;;;;;;18.16;100.00;97855.22;15264085;19;20028;-54
2023/08/31 13:53:30;;;;;;;0.90;0.45;;;;;;;18.38;100.00;97866.56;15268608;19;20758;-55
2023/08/31 13:58:58;;;;;;;1.10;0.60;;;;;;;18.21;100.00;97854.56;15259835;19;20014;-56
2023/08/31 14:04:24;;;;;;;0.80;0.40;;;;;;;17.82;100.00;97865.56;15267809;19;20024;-55
2023/08/31 14:09:50;;;;;;;1.10;0.60;;;;;;;17.84;100.00;97849.84;15261932;19;20074;-53
2023/08/31 14:15:19;;;;;;;1.88;0.68;;;;;;;17.86;100.00;97854.00;15264773;19;20018;-57
2023/08/31 14:20:51;;;;;;;1.20;0.52;;;;;;;18.18;100.00;97864.03;15282534;19;20026;-57
2023/08/31 14:26:15;;;;;;;0.60;0.43;;;;;;;18.67;100.00;97864.13;15279383;19;20037;-51
2023/08/31 14:31:43;;;;;;;0.55;0.50;;;;;;;19.04;99.68;97855.94;15276047;19;20570;-56
2023/08/31 14:37:08;;;;;;;1.23;0.50;;;;;;;19.36;91.31;97858.44;15279468;19;20019;-54
2023/08/31 14:42:32;;;;;;;0.57;0.45;;;;;;;19.05;84.14;97860.34;15275738;19;20014;-55
2023/08/31 14:47:59;;;;;;;1.40;0.40;;;;;;;18.72;79.65;97863.44;15283987;19;20006;-55
2023/08/31 14:53:25;;;;;;;1.40;0.65;;;;;;;18.42;81.25;97870.50;15277976;19;20010;-51
2023/08/31 14:58:52;;;;;;;2.15;0.50;;;;;;;18.86;85.48;97853.22;15280111;19;20024;-56
2023/08/31 15:04:20;;;;;;;1.00;0.60;;;;;;;19.23;87.31;97858.63;15270186;19;20006;-56
2023/08/31 15:09:45;;;;;;;1.55;0.50;;;;;;;19.19;79.70;97861.00;15279429;19;20019;-55
2023/08/31 15:15:11;;;;;;;0.75;0.50;;;;;;;18.79;86.04;97875.97;15270511;19;20108;-53
2023/08/31 15:20:42;;;;;;;1.27;0.50;;;;;;;19.11;74.89;97865.97;15276491;19;20025;-55
2023/08/31 15:26:13;;;;;;;2.08;0.57;;;;;;;19.32;81.44;97873.66;15273494;19;20082;-58
2023/08/31 15:31:38;;;;;;;2.28;0.60;;;;;;;19.37;79.65;97881.97;15274401;19;20525;-58
2023/08/31 15:37:07;;;;;;;0.75;0.45;;;;;;;19.12;78.85;97875.78;15267257;19;20482;-54
2023/08/31 15:42:31;;;;;;;0.57;0.45;;;;;;;19.24;74.00;97882.16;15278793;19;20030;-57
2023/08/31 15:47:57;;;;;;;1.48;0.60;;;;;;;18.82;76.11;97896.50;15276052;19;20017;-58
2023/08/31 15:53:25;;;;;;;0.80;0.60;;;;;;;18.70;76.36;97893.69;15271901;19;20035;-51
2023/08/31 15:58:52;;;;;;;0.65;0.63;;;;;;;18.39;86.16;97900.97;15282437;19;20022;-51
2023/08/31 16:04:17;;;;;;;2.70;0.60;;;;;;;18.21;87.16;97899.03;15273414;19;20038;-55
2023/08/31 16:09:44;;;;;;;2.55;0.63;;;;;;;18.23;93.47;97901.53;15270501;19;20011;-56
2023/08/31 16:15:10;;;;;;;1.45;0.60;;;;;;;18.16;99.72;97902.44;15272593;19;20089;-56
2023/08/31 16:20:35;;;;;;;2.22;0.50;;;;;;;18.26;100.00;97899.19;15263319;19;20016;-57
2023/08/31 16:26:03;;;;;;;2.40;0.50;;;;;;;18.54;100.00;97894.28;15271447;19;20010;-56
2023/08/31 16:31:29;;;;;;;0.85;0.60;;;;;;;18.56;100.00;97903.94;15277211;19;20011;-53
2023/08/31 16:36:53;;;;;;;1.33;0.60;;;;;;;18.36;94.10;97911.47;15275330;19;20006;-57
2023/08/31 16:42:21;;;;;;;1.35;0.50;;;;;;;18.50;100.00;97904.81;15267319;19;20020;-56
2023/08/31 16:47:46;;;;;;;1.05;0.60;;;;;;;18.61;100.00;97895.88;15276137;19;20707;-55
2023/08/31 16:53:11;;;;;;;1.05;0.60;;;;;;;18.62;100.00;97902.19;15266820;19;20030;-55
2023/08/31 16:58:40;;;;;;;1.15;0.80;;;;;;;18.42;100.00;97916.03;15274932;19;20059;-57
2023/08/31 17:04:04;;;;;;;1.98;0.75;;;;;;;18.34;100.00;97908.97;15270728;19;20030;-57
2023/08/31 17:09:29;;;;;;;1.00;0.70;;;;;;;18.31;100.00;97912.13;15273876;19;20648;-58
2023/08/31 17:14:57;;;;;;;0.95;0.70;;;;;;;18.08;100.00;97919.03;15262770;19;20017;-57
2023/08/31 17:20:22;;;;;;;1.55;0.77;;;;;;;17.76;100.00;97921.78;15273844;19;20499;-57
2023/08/31 17:25:47;;;;;;;1.42;0.52;;;;;;;17.46;100.00;97927.84;15266545;19;20018;-57
2023/08/31 17:31:15;;;;;;;1.10;0.60;;;;;;;17.12;100.00;97926.31;15271584;19;20011;-58
2023/08/31 17:36:41;;;;;;;0.77;0.60;;;;;;;16.73;100.00;97928.94;15267793;19;20007;-58
2023/08/31 17:42:06;;;;;;;0.77;0.50;;;;;;;16.51;100.00;97941.94;15269414;19;20017;-56
2023/08/31 17:47:34;;;;;;;1.13;0.50;;;;;;;16.24;100.00;97945.53;15267119;19;20430;-57
2023/08/31 17:52:59;;;;;;;0.45;0.40;;;;;;;16.01;100.00;97948.66;15268786;19;20659;-57
2023/08/31 17:58:23;;;;;;;1.58;0.65;;;;;;;15.74;100.00;97948.59;15264393;19;20014;-57
2023/08/31 18:03:57;;;;;;;0.50;0.50;;;;;;;15.58;100.00;97955.25;15270492;19;20391;-57
2023/08/31 18:09:26;;;;;;;1.60;0.52;;;;;;;15.45;100.00;97960.66;15268263;19;20097;-56
2023/08/31 18:14:53;;;;;;;0.80;0.50;;;;;;;15.30;100.00;97969.78;15266063;19;20126;-57
2023/08/31 18:20:23;;;;;;;0.55;0.50;;;;;;;15.22;100.00;97978.94;15266087;19;20019;-56
2023/08/31 18:25:48;;;;;;;2.05;0.60;;;;;;;15.12;100.00;97992.03;15266511;19;20480;-58
2023/08/31 18:31:16;;;;;;;0.85;0.55;;;;;;;15.03;100.00;98002.22;15266557;19;20048;-57
2023/08/31 18:36:44;;;;;;;0.73;0.60;;;;;;;15.03;100.00;98004.91;15267631;19;20019;-59
2023/08/31 18:42:09;;;;;;;0.88;0.60;;;;;;;15.01;100.00;98015.13;15267849;19;20014;-54
2023/08/31 18:47:34;;;;;;;1.02;0.55;;;;;;;15.00;100.00;98016.16;15271590;19;20043;-55
2023/08/31 18:53:02;;;;;;;1.33;0.60;;;;;;;14.99;100.00;98022.66;15258289;19;20010;-51
2023/08/31 18:58:27;;;;;;;0.57;0.45;;;;;;;14.98;100.00;98015.56;15269607;19;20027;-57
2023/08/31 19:03:59;;;;;;;1.10;0.60;;;;;;;14.94;100.00;98031.38;15266863;19;20018;-57
2023/08/31 19:09:29;;;;;;;0.88;0.60;;;;;;;14.87;100.00;98035.09;15282815;19;20025;-57
2023/08/31 19:14:53;;;;;;;1.90;0.77;;;;;;;14.88;100.00;98034.88;15275291;19;20017;-57
2023/08/31 19:20:18;;;;;;;2.13;0.80;;;;;;;14.94;100.00;98044.09;15279145;19;20438;-53
2023/08/31 19:25:46;;;;;;;1.27;0.80;;;;;;;15.04;100.00;98050.00;15268169;19;20021;-49
2023/08/31 19:31:11;;;;;;;1.42;0.85;;;;;;;15.08;100.00;98064.84;15279209;19;20022;-50
2023/08/31 19:36:36;;;;;;;1.17;0.60;;;;;;;15.19;100.00;98070.75;15274386;19;20006;-49
2023/08/31 19:42:03;;;;;;;1.83;0.50;;;;;;;15.15;100.00;98066.75;15274094;19;20011;-49
2023/08/31 19:47:28;;;;;;;0.77;0.70;;;;;;;15.04;100.00;98071.72;15253177;19;20023;-50
2023/08/31 19:52:54;;;;;;;1.60;0.68;;;;;;;14.97;100.00;98073.56;15274527;19;20043;-50
2023/08/31 19:58:21;;;;;;;0.80;0.55;;;;;;;14.80;100.00;98073.00;15275370;19;20014;-50
2023/08/31 20:03:52;;;;;;;0.80;0.57;;;;;;;14.57;100.00;98084.03;15256214;19;20493;-51
2023/08/31 20:09:19;;;;;;;0.73;0.35;;;;;;;14.44;100.00;98085.59;15268566;19;20442;-53
2023/08/31 20:14:47;;;;;;;0.80;0.50;;;;;;;14.32;100.00;98093.44;15271049;19;20043;-50
2023/08/31 20:20:17;;;;;;;1.73;0.60;;;;;;;14.21;100.00;98096.66;15276425;19;20027;-52
2023/08/31 20:25:42;;;;;;;2.47;0.90;;;;;;;14.05;100.00;98102.31;15267154;19;20021;-52
2023/08/31 20:31:10;;;;;;;1.02;0.70;;;;;;;13.94;100.00;98109.91;15274081;19;20018;-52
2023/08/31 20:36:37;;;;;;;2.15;0.60;;;;;;;13.88;100.00;98113.34;15266827;19;20018;-53
2023/08/31 20:42:03;;;;;;;1.83;0.60;;;;;;;13.84;100.00;98109.38;15275429;19;20014;-49
2023/08/31 20:47:31;;;;;;;1.02;0.60;;;;;;;13.75;100.00;98114.03;15275838;19;20014;-51
2023/08/31 20:52:56;;;;;;;0.50;0.50;;;;;;;13.68;100.00;98119.38;15271848;19;20017;-48
2023/08/31 20:58:22;;;;;;;0.82;0.60;;;;;;;13.62;100.00;98127.41;15269344;19;20010;-49
2023/08/31 21:03:56;;;;;;;1.20;0.70;;;;;;;13.60;100.00;98156.53;15299016;19;20018;-49
2023/08/31 21:09:21;;;;;;;0.82;0.70;;;;;;;13.44;100.00;98169.25;15323577;19;20015;-50
2023/08/31 21:14:46;;;;;;;2.92;0.70;;;;;;;13.40;100.00;98176.91;15289338;19;20527;-52
2023/08/31 21:20:14;;;;;;;1.38;0.63;;;;;;;13.30;100.00;98175.44;15272957;19;20086;-52
2023/08/31 21:25:41;;;;;;;0.98;0.70;;;;;;;13.20;100.00;98192.78;15272535;19;20014;-54
2023/08/31 21:31:06;;;;;;;1.25;0.70;;;;;;;13.15;100.00;98189.78;15273669;19;20021;-50
2023/08/31 21:36:33;;;;;;;0.93;0.65;;;;;;;13.06;100.00;98202.53;15270768;19;20022;-53
2023/08/31 21:41:58;;;;;;;0.93;0.70;;;;;;;13.05;100.00;98191.91;15269625;19;20369;-54
2023/08/31 21:47:30;;;;;;;1.08;0.63;;;;;;;13.05;100.00;98190.03;15272036;19;20078;-54
2023/08/31 21:52:59;;;;;;;0.90;0.60;;;;;;;13.07;100.00;98185.28;15271133;19;20014;-51
2023/08/31 21:58:25;;;;;;;2.67;0.67;;;;;;;13.05;100.00;98200.84;14759605;19;10001648;-55
2023/08/31 22:03:56;;;;;;;1.00;0.70;;;;;;;13.06;100.00;98207.94;15257333;19;20617;-54
2023/08/31 22:09:25;;;;;;;2.60;0.70;;;;;;;13.07;100.00;98217.72;15269449;19;20018;-55
2023/08/31 22:14:52;;;;;;;1.02;0.80;;;;;;;13.06;100.00;98223.34;15259250;19;20025;-52
2023/08/31 22:20:21;;;;;;;1.50;0.80;;;;;;;13.02;100.00;98222.00;15269750;19;20349;-55
2023/08/31 22:25:48;;;;;;;1.15;0.70;;;;;;;12.97;100.00;98213.63;15263559;19;20482;-52
2023/08/31 22:31:14;;;;;;;1.45;0.80;;;;;;;12.79;100.00;98222.88;15266918;19;20018;-50
2023/08/31 22:36:39;;;;;;;0.77;0.68;;;;;;;12.72;100.00;98227.31;15258718;19;20035;-53
2023/08/31 22:42:07;;;;;;;0.93;0.70;;;;;;;12.66;100.00;98236.13;15281933;19;20020;-49
2023/08/31 22:47:32;;;;;;;1.33;0.88;;;;;;;12.50;100.00;98240.63;15277397;19;20401;-51
2023/08/31 22:52:57;;;;;;;1.35;0.90;;;;;;;12.42;100.00;98256.88;15280970;19;20025;-51
2023/08/31 22:58:24;;;;;;;0.90;0.77;;;;;;;12.37;100.00;98262.00;15283005;19;20524;-49
2023/08/31 23:03:55;;;;;;;1.77;1.00;;;;;;;12.35;100.00;98272.13;15275326;19;20022;-49
2023/08/31 23:09:21;;;;;;;1.10;0.77;;;;;;;12.35;100.00;98258.63;15274464;19;20015;-49
2023/08/31 23:14:48;;;;;;;0.85;0.80;;;;;;;12.33;100.00;98259.63;15277670;19;20019;-53
2023/08/31 23:20:13;;;;;;;1.08;0.90;;;;;;;12.35;100.00;98250.50;15276769;19;20554;-52
2023/08/31 23:25:38;;;;;;;1.98;1.02;;;;;;;12.32;100.00;98262.53;15275987;19;20018;-52
2023/08/31 23:31:05;;;;;;;2.00;1.10;;;;;;;12.29;100.00;98270.97;15279937;19;20015;-50
2023/08/31 23:36:33;;;;;;;3.78;1.00;;;;;;;12.22;100.00;98265.44;15270909;19;20041;-49
2023/08/31 23:41:58;;;;;;;1.23;0.80;;;;;;;12.21;100.00;98271.00;15268029;19;20021;-49
2023/08/31 23:47:25;;;;;;;1.70;1.20;;;;;;;12.18;100.00;98269.50;15278178;19;20022;-51
2023/08/31 23:52:50;;;;;;;1.65;1.00;;;;;;;12.11;100.00;98268.50;15268731;19;20086;-51
2023/08/31 23:58:15;;;;;;;1.80;0.90;;;;;;;12.06;100.00;98270.88;15277987;19;20041;-50
